Time;durP1;ratioP1;P1;durP2;ratioP2;P2;SDS_P1;SDS_P2;PMS_P1;PMS_P2;Temp;Humidity;BMP_temperature;BMP_pressure;BME280_temperature;BME280_humidity;BME280_pressure;Samples;Min_cycle;Max_cycle;Signal;HPM_P1;HPM_P2
2023/04/05 00:01:24;;;;;;;10.57;6.07;;;;;;;;;;5053127;28;20266;-67
2023/04/05 00:03:50;;;;;;;8.53;6.53;;;;;;;;;;5053113;28;20183;-68
2023/04/05 00:06:17;;;;;;;13.30;5.90;;;;;;;;;;5035246;28;20191;-66
2023/04/05 00:08:48;;;;;;;7.70;6.20;;;;;;;;;;5035480;28;20193;-66
2023/04/05 00:11:14;;;;;;;14.00;6.77;;;;;;;;;;5053548;28;20218;-67
2023/04/05 00:13:40;;;;;;;12.83;6.80;;;;;;;;;;5055553;28;20240;-66
2023/04/05 00:16:06;;;;;;;10.97;6.00;;;;;;;;;;5057097;28;20183;-66
2023/04/05 00:18:33;;;;;;;12.63;7.13;;;;;;;;;;5057210;28;20206;-67
2023/04/05 00:20:59;;;;;;;14.83;6.07;;;;;;;;;;5057025;28;20205;-66
2023/04/05 00:23:25;;;;;;;11.97;6.33;;;;;;;;;;5056998;28;20671;-67
2023/04/05 00:25:52;;;;;;;9.97;6.33;;;;;;;;;;5057039;28;20666;-67
2023/04/05 00:28:18;;;;;;;8.47;6.73;;;;;;;;;;5057173;28;20243;-67
2023/04/05 00:30:44;;;;;;;11.73;7.23;;;;;;;;;;5038733;28;20214;-67
2023/04/05 00:33:12;;;;;;;12.00;6.60;;;;;;;;;;5039176;28;20216;-67
2023/04/05 00:35:38;;;;;;;11.03;7.10;;;;;;;;;;5056893;28;20178;-67
2023/04/05 00:38:04;;;;;;;15.37;7.63;;;;;;;;;;5057166;28;20182;-67
2023/04/05 00:40:30;;;;;;;12.40;7.03;;;;;;;;;;5056995;28;20279;-67
2023/04/05 00:42:56;;;;;;;14.57;8.07;;;;;;;;;;5057428;28;20633;-67
2023/04/05 00:45:22;;;;;;;12.20;7.07;;;;;;;;;;5057032;28;20178;-67
2023/04/05 00:47:48;;;;;;;10.17;7.20;;;;;;;;;;5057490;28;20177;-67
2023/04/05 00:50:14;;;;;;;14.40;7.80;;;;;;;;;;5058180;28;20273;-68
2023/04/05 00:52:41;;;;;;;9.47;7.23;;;;;;;;;;5057843;28;20209;-68
2023/04/05 00:55:07;;;;;;;12.43;7.63;;;;;;;;;;5038344;28;20289;-67
2023/04/05 00:57:38;;;;;;;13.87;7.20;;;;;;;;;;5056413;28;20228;-68
2023/04/05 01:00:08;;;;;;;11.70;7.40;;;;;;;;;;5056083;28;20546;-67
2023/04/05 01:02:54;;;;;;;13.17;7.63;;;;;;;;;;5056054;28;20679;-67
2023/04/05 01:05:39;;;;;;;13.40;7.93;;;;;;;;;;5038175;28;20170;-67
2023/04/05 01:08:12;;;;;;;11.13;8.10;;;;;;;;;;5055978;28;20551;-67
2023/04/05 01:10:39;;;;;;;14.60;7.77;;;;;;;;;;5037894;28;20210;-67
2023/04/05 01:13:06;;;;;;;12.57;8.20;;;;;;;;;;5037835;28;20182;-67
2023/04/05 01:15:32;;;;;;;13.00;7.50;;;;;;;;;;5038176;28;20178;-67
2023/04/05 01:18:00;;;;;;;10.73;8.07;;;;;;;;;;5038045;28;20190;-66
2023/04/05 01:20:27;;;;;;;11.30;7.53;;;;;;;;;;5055971;28;20191;-67
2023/04/05 01:23:13;;;;;;;13.07;8.17;;;;;;;;;;5055964;28;20253;-67
2023/04/05 01:25:58;;;;;;;12.03;7.77;;;;;;;;;;5055680;28;20170;-67
2023/04/05 01:28:30;;;;;;;14.23;7.83;;;;;;;;;;5037719;28;20190;-67
2023/04/05 01:31:04;;;;;;;13.90;8.17;;;;;;;;;;5055336;28;20730;-67
2023/04/05 01:33:33;;;;;;;13.87;8.27;;;;;;;;;;5055794;28;20159;-67
2023/04/05 01:36:02;;;;;;;14.90;8.40;;;;;;;;;;5037834;28;20746;-66
2023/04/05 01:38:29;;;;;;;14.03;8.57;;;;;;;;;;5037893;28;20653;-66
2023/04/05 01:40:55;;;;;;;15.97;8.70;;;;;;;;;;5055793;28;20210;-66
2023/04/05 01:43:21;;;;;;;12.10;8.20;;;;;;;;;;5049508;28;20192;-67
2023/04/05 01:45:47;;;;;;;12.03;8.27;;;;;;;;;;5076882;28;20158;-66
2023/04/05 01:48:13;;;;;;;11.13;8.00;;;;;;;;;;5057632;28;20574;-67
2023/04/05 01:50:39;;;;;;;13.47;8.30;;;;;;;;;;5075989;28;20210;-67
2023/04/05 01:53:07;;;;;;;11.07;7.20;;;;;;;;;;5070274;28;20201;-66
2023/04/05 01:55:33;;;;;;;9.40;7.23;;;;;;;;;;5037527;28;20597;-68
2023/04/05 01:57:59;;;;;;;12.00;8.27;;;;;;;;;;5055106;28;20269;-69
2023/04/05 02:00:26;;;;;;;12.37;7.87;;;;;;;;;;5054959;28;20198;-66
2023/04/05 02:02:52;;;;;;;10.93;7.43;;;;;;;;;;5036882;28;20652;-66
2023/04/05 02:05:18;;;;;;;12.03;8.13;;;;;;;;;;5054918;28;20208;-66
2023/04/05 02:07:44;;;;;;;15.33;8.20;;;;;;;;;;5036956;28;20231;-66
2023/04/05 02:10:10;;;;;;;12.30;7.90;;;;;;;;;;5054586;28;20194;-68
2023/04/05 02:12:36;;;;;;;11.93;8.17;;;;;;;;;;5054763;28;20210;-66
2023/04/05 02:15:02;;;;;;;17.30;8.83;;;;;;;;;;5054960;28;20307;-66
2023/04/05 02:17:32;;;;;;;13.13;9.10;;;;;;;;;;5054616;28;20203;-66
2023/04/05 02:20:01;;;;;;;14.30;8.70;;;;;;;;;;5054936;28;20198;-66
2023/04/05 02:22:27;;;;;;;14.93;9.20;;;;;;;;;;5054660;28;20262;-66
2023/04/05 02:24:53;;;;;;;14.30;8.70;;;;;;;;;;5037456;28;20213;-66
2023/04/05 02:27:19;;;;;;;16.13;9.03;;;;;;;;;;5036724;28;20186;-66
2023/04/05 02:29:45;;;;;;;16.90;8.73;;;;;;;;;;5054847;28;20194;-67
2023/04/05 02:32:11;;;;;;;16.80;8.33;;;;;;;;;;5054400;28;20196;-66
2023/04/05 02:34:40;;;;;;;13.37;8.93;;;;;;;;;;5036592;28;20186;-66
2023/04/05 02:37:06;;;;;;;24.37;9.97;;;;;;;;;;5053862;28;20175;-67
2023/04/05 02:39:32;;;;;;;16.67;9.13;;;;;;;;;;5038520;28;20309;-67
2023/04/05 02:41:58;;;;;;;14.30;10.07;;;;;;;;;;5038337;28;20332;-67
2023/04/05 02:44:24;;;;;;;15.63;10.17;;;;;;;;;;5057259;28;20181;-67
2023/04/05 02:46:50;;;;;;;19.07;9.57;;;;;;;;;;5038971;28;20190;-66
2023/04/05 02:49:16;;;;;;;15.10;9.53;;;;;;;;;;5061398;28;20205;-67
2023/04/05 02:51:42;;;;;;;22.37;9.80;;;;;;;;;;5052592;28;20198;-67
2023/04/05 02:54:08;;;;;;;12.27;8.93;;;;;;;;;;5070812;28;20174;-68
2023/04/05 02:56:34;;;;;;;17.60;9.80;;;;;;;;;;5052590;28;20179;-67
2023/04/05 02:59:01;;;;;;;16.23;10.00;;;;;;;;;;5069851;28;20324;-67
2023/04/05 03:01:27;;;;;;;18.37;10.73;;;;;;;;;;5052636;28;20624;-66
2023/04/05 03:03:53;;;;;;;17.07;10.13;;;;;;;;;;5070926;28;20178;-68
2023/04/05 03:06:19;;;;;;;18.47;10.07;;;;;;;;;;5060147;28;20178;-66
2023/04/05 03:08:48;;;;;;;16.10;10.03;;;;;;;;;;5037662;28;20556;-68
2023/04/05 03:11:14;;;;;;;19.60;12.63;;;;;;;;;;5037602;28;20205;-66
2023/04/05 03:13:40;;;;;;;22.43;12.73;;;;;;;;;;5043177;28;20174;-67
2023/04/05 03:16:06;;;;;;;19.80;12.83;;;;;;;;;;5069383;28;20418;-66
2023/04/05 03:18:32;;;;;;;19.23;12.77;;;;;;;;;;5036627;28;20182;-66
2023/04/05 03:20:58;;;;;;;23.43;13.63;;;;;;;;;;5054328;28;20597;-67
2023/04/05 03:23:26;;;;;;;20.83;13.73;;;;;;;;;;5054508;28;20182;-66
2023/04/05 03:25:57;;;;;;;23.80;14.07;;;;;;;;;;5036547;28;20250;-66
2023/04/05 03:28:24;;;;;;;21.87;15.00;;;;;;;;;;5054565;28;20413;-67
2023/04/05 03:30:50;;;;;;;26.10;15.43;;;;;;;;;;5055536;28;20206;-67
2023/04/05 03:33:16;;;;;;;25.07;14.80;;;;;;;;;;5055272;28;20421;-67
2023/04/05 03:35:42;;;;;;;20.90;13.53;;;;;;;;;;5055508;28;20405;-67
2023/04/05 03:38:08;;;;;;;29.40;16.53;;;;;;;;;;5060569;28;20903;-67
2023/04/05 03:40:34;;;;;;;27.90;16.57;;;;;;;;;;5063549;28;20217;-67
2023/04/05 03:43:00;;;;;;;23.03;13.83;;;;;;;;;;5062408;28;20413;-67
2023/04/05 03:45:28;;;;;;;23.00;13.40;;;;;;;;;;5063482;28;20913;-68
2023/04/05 03:47:54;;;;;;;22.07;15.07;;;;;;;;;;5046291;28;20178;-67
2023/04/05 03:50:20;;;;;;;23.73;16.37;;;;;;;;;;5046601;28;20447;-67
2023/04/05 03:52:46;;;;;;;25.50;16.30;;;;;;;;;;5039993;28;20416;-67
2023/04/05 03:55:12;;;;;;;20.60;15.60;;;;;;;;;;5058211;28;20174;-67
2023/04/05 03:57:38;;;;;;;22.43;14.60;;;;;;;;;;5057431;28;20175;-67
2023/04/05 04:00:14;;;;;;;27.20;15.17;;;;;;;;;;5057472;28;20451;-66
2023/04/05 04:02:41;;;;;;;20.47;14.60;;;;;;;;;;5040618;28;20194;-67
2023/04/05 04:05:07;;;;;;;25.23;13.37;;;;;;;;;;5057347;28;20186;-67
2023/04/05 04:07:33;;;;;;;18.23;13.10;;;;;;;;;;5057224;28;20416;-67
2023/04/05 04:09:59;;;;;;;20.30;12.20;;;;;;;;;;5039011;28;20553;-67
2023/04/05 04:12:25;;;;;;;19.13;12.37;;;;;;;;;;5056799;28;20252;-67
2023/04/05 04:14:51;;;;;;;17.87;12.57;;;;;;;;;;5057594;28;20797;-67
2023/04/05 04:17:31;;;;;;;18.10;12.70;;;;;;;;;;5038749;28;20420;-67
2023/04/05 04:19:57;;;;;;;16.37;13.03;;;;;;;;;;5056655;28;20269;-67
2023/04/05 04:22:31;;;;;;;20.97;12.97;;;;;;;;;;5038750;28;20413;-67
2023/04/05 04:25:01;;;;;;;18.27;12.87;;;;;;;;;;5057333;28;20200;-67
2023/04/05 04:27:29;;;;;;;20.13;11.73;;;;;;;;;;5056723;28;20644;-67
2023/04/05 04:30:00;;;;;;;16.53;11.93;;;;;;;;;;5057073;28;20425;-67
2023/04/05 04:32:46;;;;;;;20.00;12.50;;;;;;;;;;5038658;28;20540;-67
2023/04/05 04:35:19;;;;;;;20.17;11.83;;;;;;;;;;5056721;28;20394;-66
2023/04/05 04:37:52;;;;;;;19.67;12.07;;;;;;;;;;5056742;28;20382;-66
2023/04/05 04:40:18;;;;;;;20.07;12.30;;;;;;;;;;5056226;28;20498;-67
2023/04/05 04:42:47;;;;;;;15.37;11.87;;;;;;;;;;5038373;28;20496;-67
2023/04/05 04:45:15;;;;;;;17.83;12.50;;;;;;;;;;5056443;28;20409;-67
2023/04/05 04:47:42;;;;;;;18.90;12.50;;;;;;;;;;5038419;28;20461;-66
2023/04/05 04:50:09;;;;;;;17.00;11.70;;;;;;;;;;5056870;28;20425;-66
2023/04/05 04:52:35;;;;;;;20.87;12.17;;;;;;;;;;5056382;28;20445;-67
2023/04/05 04:55:01;;;;;;;23.63;12.43;;;;;;;;;;5056550;28;20938;-67
2023/04/05 04:57:27;;;;;;;21.27;12.27;;;;;;;;;;5054917;28;20578;-67
2023/04/05 04:59:54;;;;;;;18.80;13.37;;;;;;;;;;5078198;28;20429;-67
2023/04/05 05:02:23;;;;;;;34.33;16.93;;;;;;;;;;5076896;28;20406;-67
2023/04/05 05:04:50;;;;;;;26.03;14.83;;;;;;;;;;5077075;28;20484;-67
2023/04/05 05:07:16;;;;;;;27.00;13.73;;;;;;;;;;5067264;28;20492;-67
2023/04/05 05:09:42;;;;;;;22.23;12.27;;;;;;;;;;5056111;28;20503;-67
2023/04/05 05:12:08;;;;;;;22.17;13.23;;;;;;;;;;5037722;28;20459;-67
2023/04/05 05:14:34;;;;;;;18.53;12.83;;;;;;;;;;5055791;28;20409;-67
2023/04/05 05:17:00;;;;;;;26.67;13.60;;;;;;;;;;5057184;28;20178;-67
2023/04/05 05:19:26;;;;;;;20.17;12.90;;;;;;;;;;5059778;28;20429;-67
2023/04/05 05:21:52;;;;;;;20.83;12.87;;;;;;;;;;5040551;28;20553;-65
2023/04/05 05:24:19;;;;;;;21.20;13.30;;;;;;;;;;5056269;28;20178;-67
2023/04/05 05:26:45;;;;;;;20.87;13.53;;;;;;;;;;5037658;28;20424;-69
2023/04/05 05:29:11;;;;;;;21.63;13.00;;;;;;;;;;5037476;28;20440;-68
2023/04/05 05:31:38;;;;;;;21.70;12.60;;;;;;;;;;5055164;28;20452;-67
2023/04/05 05:34:05;;;;;;;19.77;12.87;;;;;;;;;;5037586;28;20648;-67
2023/04/05 05:36:31;;;;;;;20.40;12.90;;;;;;;;;;5037606;28;20463;-67
2023/04/05 05:38:57;;;;;;;22.37;13.30;;;;;;;;;;5055159;28;20421;-67
2023/04/05 05:41:23;;;;;;;20.07;12.97;;;;;;;;;;5055270;28;20182;-67
2023/04/05 05:43:49;;;;;;;22.23;12.27;;;;;;;;;;5055626;28;20190;-69
2023/04/05 05:46:15;;;;;;;28.10;11.57;;;;;;;;;;5056347;28;20175;-67
2023/04/05 05:48:41;;;;;;;24.00;10.77;;;;;;;;;;5037020;28;20652;-67
2023/04/05 05:51:10;;;;;;;24.43;11.33;;;;;;;;;;5055044;28;20195;-67
2023/04/05 05:53:36;;;;;;;31.40;11.03;;;;;;;;;;5054762;28;20233;-67
2023/04/05 05:56:02;;;;;;;18.17;10.57;;;;;;;;;;5036920;28;20601;-67
2023/04/05 05:58:28;;;;;;;24.90;11.17;;;;;;;;;;5054635;28;20171;-67
2023/04/05 06:00:55;;;;;;;30.77;10.90;;;;;;;;;;5055003;28;20204;-67
2023/04/05 06:03:21;;;;;;;32.43;11.47;;;;;;;;;;5054671;28;20175;-67
2023/04/05 06:05:58;;;;;;;30.53;10.87;;;;;;;;;;5054691;28;20184;-67
2023/04/05 06:08:24;;;;;;;19.80;11.43;;;;;;;;;;5055334;28;20186;-68
2023/04/05 06:10:52;;;;;;;30.37;10.93;;;;;;;;;;5035441;28;20220;-67
2023/04/05 06:13:18;;;;;;;25.37;10.67;;;;;;;;;;5036533;28;20210;-67
2023/04/05 06:15:44;;;;;;;31.37;10.93;;;;;;;;;;5054407;28;20252;-67
2023/04/05 06:18:10;;;;;;;27.83;11.43;;;;;;;;;;5054411;28;20205;-67
2023/04/05 06:20:39;;;;;;;31.57;11.27;;;;;;;;;;5054647;28;20255;-68
2023/04/05 06:23:05;;;;;;;28.37;11.63;;;;;;;;;;5054709;28;20636;-67
2023/04/05 06:25:31;;;;;;;36.80;11.50;;;;;;;;;;5054964;28;20166;-67
2023/04/05 06:27:57;;;;;;;27.90;10.57;;;;;;;;;;5054203;28;20185;-67
2023/04/05 06:30:23;;;;;;;27.13;11.43;;;;;;;;;;5054076;28;20209;-67
2023/04/05 06:32:53;;;;;;;24.00;10.73;;;;;;;;;;5036252;28;20186;-67
2023/04/05 06:35:19;;;;;;;36.40;11.07;;;;;;;;;;5036294;28;20179;-67
2023/04/05 06:37:45;;;;;;;23.80;11.07;;;;;;;;;;5054198;28;20691;-67
2023/04/05 06:40:11;;;;;;;30.50;10.57;;;;;;;;;;5054008;28;20213;-68
2023/04/05 06:42:37;;;;;;;24.63;10.87;;;;;;;;;;5054091;28;20171;-67
2023/04/05 06:45:04;;;;;;;31.53;11.30;;;;;;;;;;5054167;28;20175;-67
2023/04/05 06:47:37;;;;;;;26.43;11.17;;;;;;;;;;5036120;28;20182;-68
2023/04/05 06:50:04;;;;;;;16.70;9.83;;;;;;;;;;5053840;28;20260;-68
2023/04/05 06:52:30;;;;;;;22.10;10.17;;;;;;;;;;5036207;28;20209;-68
2023/04/05 06:54:56;;;;;;;17.60;9.23;;;;;;;;;;5053904;28;20179;-68
2023/04/05 06:57:22;;;;;;;23.73;9.53;;;;;;;;;;5035768;28;20527;-68
2023/04/05 06:59:48;;;;;;;17.90;9.60;;;;;;;;;;5035884;28;20579;-67
2023/04/05 07:02:14;;;;;;;17.03;9.13;;;;;;;;;;5036078;28;20187;-67
2023/04/05 07:04:40;;;;;;;19.47;9.53;;;;;;;;;;5054824;28;20182;-67
2023/04/05 07:07:06;;;;;;;21.53;10.27;;;;;;;;;;5053887;28;20209;-67
2023/04/05 07:09:32;;;;;;;20.57;10.20;;;;;;;;;;5070722;22;20234;-71
2023/04/05 07:12:00;;;;;;;17.17;10.70;;;;;;;;;;5034088;28;20203;-71
2023/04/05 07:14:26;;;;;;;16.03;9.17;;;;;;;;;;5016394;28;20206;-71
2023/04/05 07:16:52;;;;;;;20.93;9.90;;;;;;;;;;5034373;28;20171;-71
2023/04/05 07:19:18;;;;;;;18.20;9.70;;;;;;;;;;5033963;28;20538;-71
2023/04/05 07:21:44;;;;;;;22.77;9.80;;;;;;;;;;5033711;28;20310;-71
2023/04/05 07:24:10;;;;;;;14.47;6.50;;;;;;;;;;5016518;28;20218;-71
2023/04/05 07:26:36;;;;;;;8.03;5.67;;;;;;;;;;5016312;28;20559;-71
2023/04/05 07:29:03;;;;;;;8.73;5.70;;;;;;;;;;5033768;28;20199;-71
2023/04/05 07:31:30;;;;;;;9.60;5.20;;;;;;;;;;5034233;28;20214;-71
2023/04/05 07:33:58;;;;;;;6.13;5.53;;;;;;;;;;5016708;28;20215;-70
2023/04/05 07:36:26;;;;;;;8.03;6.07;;;;;;;;;;5036009;28;20175;-71
2023/04/05 07:38:52;;;;;;;13.43;6.37;;;;;;;;;;5034119;28;20238;-71
2023/04/05 07:41:19;;;;;;;10.43;6.63;;;;;;;;;;5034216;28;20178;-71
2023/04/05 07:43:45;;;;;;;10.27;6.87;;;;;;;;;;5016524;28;20206;-71
2023/04/05 07:46:11;;;;;;;44.10;22.17;;;;;;;;;;5034628;28;20186;-71
2023/04/05 07:48:37;;;;;;;14.80;7.97;;;;;;;;;;5016625;28;20183;-71
2023/04/05 07:51:07;;;;;;;14.33;7.80;;;;;;;;;;5016124;28;20211;-71
2023/04/05 07:53:33;;;;;;;12.97;7.67;;;;;;;;;;5034147;28;20186;-71
2023/04/05 07:56:02;;;;;;;15.67;9.00;;;;;;;;;;5034018;28;20175;-71
2023/04/05 07:58:29;;;;;;;14.77;8.67;;;;;;;;;;5016237;28;20181;-71
2023/04/05 08:00:58;;;;;;;11.07;7.63;;;;;;;;;;5033754;28;20579;-71
2023/04/05 08:03:24;;;;;;;12.17;7.50;;;;;;;;;;5033922;28;20233;-71
2023/04/05 08:05:50;;;;;;;11.53;7.27;;;;;;;;;;5033630;28;20179;-71
2023/04/05 08:08:16;;;;;;;13.17;7.47;;;;;;;;;;5034408;28;20245;-71
2023/04/05 08:10:42;;;;;;;10.43;7.27;;;;;;;;;;5034051;28;20288;-71
2023/04/05 08:13:08;;;;;;;10.87;7.30;;;;;;;;;;5034111;28;20555;-71
2023/04/05 08:15:34;;;;;;;12.73;8.73;;;;;;;;;;5034244;28;20182;-70
2023/04/05 08:18:00;;;;;;;13.50;8.37;;;;;;;;;;5016824;28;20269;-71
2023/04/05 08:20:26;;;;;;;8.80;6.33;;;;;;;;;;5033921;28;20195;-70
2023/04/05 08:22:52;;;;;;;15.77;7.07;;;;;;;;;;5034987;28;20190;-71
2023/04/05 08:25:18;;;;;;;13.53;8.23;;;;;;;;;;5035097;28;20282;-71
2023/04/05 08:27:44;;;;;;;15.10;8.97;;;;;;;;;;5017727;28;20191;-71
2023/04/05 08:30:11;;;;;;;14.17;9.47;;;;;;;;;;5034293;28;20199;-71
2023/04/05 08:32:37;;;;;;;11.83;8.07;;;;;;;;;;5036963;28;20206;-71
2023/04/05 08:35:03;;;;;;;12.50;7.50;;;;;;;;;;5039582;28;20239;-71
2023/04/05 08:37:29;;;;;;;10.87;7.07;;;;;;;;;;5022873;28;20179;-70
2023/04/05 08:39:55;;;;;;;11.80;6.43;;;;;;;;;;5037975;28;20274;-71
2023/04/05 08:42:44;;;;;;;9.53;6.90;;;;;;;;;;5019782;28;20624;-70
2023/04/05 08:45:10;;;;;;;10.30;6.73;;;;;;;;;;5009194;28;20286;-70
2023/04/05 08:47:37;;;;;;;13.63;7.10;;;;;;;;;;5037065;28;20186;-71
2023/04/05 08:50:04;;;;;;;11.07;7.33;;;;;;;;;;5019469;28;20257;-71
2023/04/05 08:52:33;;;;;;;12.33;7.40;;;;;;;;;;5037111;28;20684;-71
2023/04/05 08:54:59;;;;;;;11.97;7.37;;;;;;;;;;5019280;28;20179;-71
2023/04/05 08:57:26;;;;;;;10.80;6.80;;;;;;;;;;5037049;28;20171;-71
2023/04/05 08:59:52;;;;;;;11.93;7.23;;;;;;;;;;5037589;28;20707;-71
2023/04/05 09:02:19;;;;;;;15.10;7.33;;;;;;;;;;5020568;28;20179;-71
2023/04/05 09:04:47;;;;;;;9.90;6.43;;;;;;;;;;5020890;28;20190;-71
2023/04/05 09:07:13;;;;;;;12.60;7.90;;;;;;;;;;5038329;28;20179;-71
2023/04/05 09:09:41;;;;;;;15.00;7.90;;;;;;;;;;5036968;28;20249;-70
2023/04/05 09:12:08;;;;;;;12.60;7.63;;;;;;;;;;5019240;28;20210;-70
2023/04/05 09:14:34;;;;;;;12.90;7.70;;;;;;;;;;5036476;28;20259;-71
2023/04/05 09:17:03;;;;;;;12.37;7.40;;;;;;;;;;5018433;28;20183;-71
2023/04/05 09:19:29;;;;;;;11.63;7.30;;;;;;;;;;5036253;28;20673;-71
2023/04/05 09:21:59;;;;;;;12.37;7.53;;;;;;;;;;5036315;28;20259;-71
2023/04/05 09:24:33;;;;;;;16.27;7.63;;;;;;;;;;5036202;28;20266;-70
2023/04/05 09:27:06;;;;;;;10.03;7.00;;;;;;;;;;5018164;28;20183;-71
2023/04/05 09:29:32;;;;;;;11.40;7.33;;;;;;;;;;5036115;28;20195;-71
2023/04/05 09:32:00;;;;;;;9.20;7.03;;;;;;;;;;5036530;28;20285;-71
2023/04/05 09:34:26;;;;;;;11.67;7.93;;;;;;;;;;5036063;28;20168;-71
2023/04/05 09:36:52;;;;;;;18.07;8.13;;;;;;;;;;5036231;28;20202;-71
2023/04/05 09:39:22;;;;;;;12.80;7.23;;;;;;;;;;5036159;28;20194;-71
2023/04/05 09:42:04;;;;;;;17.27;7.57;;;;;;;;;;5040155;28;20257;-72
2023/04/05 09:44:49;;;;;;;8.87;6.07;;;;;;;;;;5042349;28;20724;-71
2023/04/05 09:47:18;;;;;;;10.47;6.20;;;;;;;;;;5043719;28;20209;-71
2023/04/05 09:49:44;;;;;;;9.23;6.03;;;;;;;;;;5036597;28;20269;-71
2023/04/05 09:52:36;;;;;;;11.60;6.50;;;;;;;;;;5035979;28;20226;-71
2023/04/05 09:55:05;;;;;;;10.33;6.23;;;;;;;;;;5014709;28;20193;-71
2023/04/05 09:57:33;;;;;;;7.97;5.50;;;;;;;;;;5035796;28;20180;-71
2023/04/05 09:59:59;;;;;;;10.20;6.50;;;;;;;;;;5035855;28;20215;-71
2023/04/05 10:02:25;;;;;;;12.77;6.23;;;;;;;;;;5017766;28;20189;-71
2023/04/05 10:04:51;;;;;;;9.00;6.37;;;;;;;;;;5017766;28;20236;-72
2023/04/05 10:07:18;;;;;;;9.07;6.23;;;;;;;;;;5035172;28;20183;-71
2023/04/05 10:09:45;;;;;;;10.90;6.57;;;;;;;;;;5017623;28;20215;-71
2023/04/05 10:12:28;;;;;;;7.90;5.20;;;;;;;;;;5017445;28;20728;-71
2023/04/05 10:14:55;;;;;;;9.83;6.03;;;;;;;;;;5018011;28;20171;-71
2023/04/05 10:17:21;;;;;;;9.47;7.00;;;;;;;;;;5035692;28;20167;-71
2023/04/05 10:19:56;;;;;;;5.87;4.87;;;;;;;;;;5035447;28;20669;-71
2023/04/05 10:22:24;;;;;;;12.43;7.03;;;;;;;;;;5017708;28;20163;-70
2023/04/05 10:24:55;;;;;;;9.37;6.83;;;;;;;;;;5035054;28;20179;-71
2023/04/05 10:27:23;;;;;;;9.70;6.63;;;;;;;;;;5017152;28;20546;-71
2023/04/05 10:30:03;;;;;;;11.87;7.40;;;;;;;;;;5034848;28;20191;-71
2023/04/05 10:32:48;;;;;;;9.23;7.03;;;;;;;;;;5034941;28;20266;-71
2023/04/05 10:35:20;;;;;;;14.67;7.30;;;;;;;;;;5034800;28;20659;-71
2023/04/05 10:37:55;;;;;;;8.13;6.53;;;;;;;;;;5035211;28;20512;-71
2023/04/05 10:40:21;;;;;;;12.23;7.20;;;;;;;;;;5034435;28;20197;-71
2023/04/05 10:42:48;;;;;;;9.37;7.37;;;;;;;;;;5016768;28;20187;-71
2023/04/05 10:45:18;;;;;;;9.27;6.90;;;;;;;;;;5016717;28;20198;-71
2023/04/05 10:47:49;;;;;;;11.07;5.73;;;;;;;;;;5016660;28;20186;-70
2023/04/05 10:50:19;;;;;;;11.47;7.43;;;;;;;;;;5016916;28;20202;-71
2023/04/05 10:52:46;;;;;;;9.57;7.80;;;;;;;;;;5016580;28;20576;-71
2023/04/05 10:55:12;;;;;;;9.20;7.57;;;;;;;;;;5016596;28;20269;-71
2023/04/05 10:57:39;;;;;;;13.97;7.17;;;;;;;;;;5016280;28;20222;-70
2023/04/05 11:00:05;;;;;;;8.20;6.23;;;;;;;;;;5016607;28;20203;-71
2023/04/05 11:02:32;;;;;;;9.57;6.67;;;;;;;;;;5034361;28;20190;-70
2023/04/05 11:05:03;;;;;;;10.10;7.40;;;;;;;;;;5034900;28;20667;-71
2023/04/05 11:07:41;;;;;;;12.17;8.10;;;;;;;;;;5016719;28;20179;-70
2023/04/05 11:10:13;;;;;;;10.90;8.23;;;;;;;;;;5016341;28;20288;-71
2023/04/05 11:13:02;;;;;;;10.70;7.90;;;;;;;;;;5034425;28;20249;-71
2023/04/05 11:15:28;;;;;;;11.20;7.50;;;;;;;;;;5016702;28;20171;-71
2023/04/05 11:18:03;;;;;;;16.57;8.23;;;;;;;;;;5016465;28;20183;-71
2023/04/05 11:20:40;;;;;;;13.37;6.50;;;;;;;;;;5016461;28;20579;-70
2023/04/05 11:23:06;;;;;;;12.43;7.17;;;;;;;;;;5016346;28;20182;-71
2023/04/05 11:25:37;;;;;;;8.90;6.43;;;;;;;;;;5016527;28;20225;-71
2023/04/05 11:28:04;;;;;;;10.30;7.23;;;;;;;;;;5034388;28;20649;-70
2023/04/05 11:30:50;;;;;;;8.33;6.80;;;;;;;;;;5016547;28;20587;-71
2023/04/05 11:33:38;;;;;;;12.50;8.03;;;;;;;;;;5035498;28;20556;-71
2023/04/05 11:36:05;;;;;;;12.80;6.90;;;;;;;;;;5034017;28;20174;-71
2023/04/05 11:38:31;;;;;;;12.83;7.93;;;;;;;;;;5034293;28;20176;-71
2023/04/05 11:41:16;;;;;;;16.40;7.87;;;;;;;;;;5018673;28;20195;-71
2023/04/05 11:43:43;;;;;;;14.17;7.97;;;;;;;;;;5019631;28;20163;-71
2023/04/05 11:46:09;;;;;;;13.43;8.40;;;;;;;;;;5035886;28;20179;-71
2023/04/05 11:48:35;;;;;;;15.20;9.00;;;;;;;;;;5035974;28;20238;-71
2023/04/05 11:51:07;;;;;;;11.90;7.93;;;;;;;;;;5034587;28;20285;-71
2023/04/05 11:53:33;;;;;;;13.47;8.77;;;;;;;;;;5034674;28;20221;-71
2023/04/05 11:56:05;;;;;;;15.57;8.73;;;;;;;;;;5016599;28;20175;-71
2023/04/05 11:58:31;;;;;;;10.77;7.97;;;;;;;;;;5034880;28;20168;-71
2023/04/05 12:00:58;;;;;;;27.13;9.07;;;;;;;;;;5035200;28;20201;-71
2023/04/05 12:03:24;;;;;;;13.20;8.53;;;;;;;;;;5034681;28;20214;-71
2023/04/05 12:05:51;;;;;;;15.53;8.70;;;;;;;;;;5016963;28;20190;-71
2023/04/05 12:08:18;;;;;;;10.20;6.87;;;;;;;;;;5025890;28;20182;-70
2023/04/05 12:10:44;;;;;;;9.50;7.50;;;;;;;;;;5038795;28;20211;-71
2023/04/05 12:13:10;;;;;;;9.33;7.70;;;;;;;;;;5020403;28;20183;-71
2023/04/05 12:15:38;;;;;;;13.23;8.13;;;;;;;;;;5020238;28;20179;-71
2023/04/05 12:18:06;;;;;;;9.30;7.37;;;;;;;;;;5020416;28;20179;-71
2023/04/05 12:20:32;;;;;;;13.83;8.00;;;;;;;;;;5037624;28;20195;-71
2023/04/05 12:22:58;;;;;;;12.50;8.00;;;;;;;;;;5037794;28;20653;-71
2023/04/05 12:25:25;;;;;;;11.40;7.37;;;;;;;;;;5037907;28;20179;-71
2023/04/05 12:27:51;;;;;;;11.83;7.60;;;;;;;;;;5038441;28;20179;-71
2023/04/05 12:30:18;;;;;;;8.50;7.40;;;;;;;;;;5038124;28;20614;-71
2023/04/05 12:32:47;;;;;;;10.57;7.90;;;;;;;;;;5019953;28;20253;-71
2023/04/05 12:35:15;;;;;;;16.60;8.47;;;;;;;;;;5019698;28;20628;-71
2023/04/05 12:37:41;;;;;;;14.13;7.63;;;;;;;;;;5019870;28;20232;-71
2023/04/05 12:40:07;;;;;;;11.33;8.57;;;;;;;;;;5037455;28;20206;-71
2023/04/05 12:42:35;;;;;;;10.90;7.33;;;;;;;;;;5037773;28;20183;-71
2023/04/05 12:45:03;;;;;;;15.77;8.40;;;;;;;;;;5020171;28;20179;-71
2023/04/05 12:47:29;;;;;;;11.53;8.03;;;;;;;;;;5023811;28;20183;-71
2023/04/05 12:49:55;;;;;;;11.13;8.37;;;;;;;;;;5048244;28;20191;-71
2023/04/05 12:52:21;;;;;;;10.87;8.13;;;;;;;;;;5044390;28;20207;-71
2023/04/05 12:54:54;;;;;;;12.63;8.53;;;;;;;;;;5043122;28;20535;-71
2023/04/05 12:57:29;;;;;;;11.87;8.60;;;;;;;;;;5037343;28;20176;-70
2023/04/05 12:59:55;;;;;;;11.47;8.40;;;;;;;;;;5037865;28;20194;-71
2023/04/05 13:02:21;;;;;;;10.43;7.83;;;;;;;;;;5019619;28;20197;-70
2023/04/05 13:04:47;;;;;;;12.73;8.07;;;;;;;;;;5021374;28;20258;-70
2023/04/05 13:07:13;;;;;;;14.33;8.03;;;;;;;;;;5036781;28;20178;-70
2023/04/05 13:09:39;;;;;;;12.63;8.20;;;;;;;;;;5036615;28;20221;-70
2023/04/05 13:12:05;;;;;;;13.80;7.57;;;;;;;;;;5036874;28;20288;-71
2023/04/05 13:14:31;;;;;;;10.97;7.40;;;;;;;;;;5036877;28;20179;-70
2023/04/05 13:16:57;;;;;;;11.27;8.13;;;;;;;;;;5036958;28;20287;-71
2023/04/05 13:19:23;;;;;;;10.10;8.13;;;;;;;;;;5019499;28;20199;-71
2023/04/05 13:21:49;;;;;;;11.63;7.47;;;;;;;;;;5019558;28;20194;-71
2023/04/05 13:24:15;;;;;;;12.73;7.17;;;;;;;;;;5019908;28;20183;-71
2023/04/05 13:26:41;;;;;;;9.40;7.03;;;;;;;;;;5036855;28;20179;-71
2023/04/05 13:29:07;;;;;;;10.07;8.13;;;;;;;;;;5036273;28;20199;-71
2023/04/05 13:31:33;;;;;;;12.77;7.67;;;;;;;;;;5018515;28;20207;-70
2023/04/05 13:33:59;;;;;;;12.63;8.27;;;;;;;;;;5018485;28;20214;-70
2023/04/05 13:36:25;;;;;;;15.17;7.50;;;;;;;;;;5036872;28;20175;-70
2023/04/05 13:38:51;;;;;;;12.20;7.87;;;;;;;;;;5036344;28;20183;-70
2023/04/05 13:41:17;;;;;;;12.57;7.93;;;;;;;;;;5018011;28;20183;-70
2023/04/05 13:43:43;;;;;;;12.60;7.97;;;;;;;;;;5035924;28;20184;-69
2023/04/05 13:46:09;;;;;;;8.73;7.03;;;;;;;;;;5036162;28;20179;-70
2023/04/05 13:48:35;;;;;;;9.07;7.63;;;;;;;;;;5035778;28;20179;-70
2023/04/05 13:51:01;;;;;;;17.33;7.10;;;;;;;;;;5055588;23;20232;-67
2023/04/05 13:53:27;;;;;;;11.57;7.67;;;;;;;;;;5055018;28;20170;-66
2023/04/05 13:55:52;;;;;;;11.00;7.27;;;;;;;;;;5037085;28;20173;-68
2023/04/05 13:58:18;;;;;;;9.50;7.83;;;;;;;;;;5036920;28;20236;-66
2023/04/05 14:00:44;;;;;;;18.90;7.77;;;;;;;;;;5054900;28;20214;-68
2023/04/05 14:03:10;;;;;;;9.77;7.70;;;;;;;;;;5036983;28;20633;-66
2023/04/05 14:05:36;;;;;;;8.97;8.07;;;;;;;;;;5055504;28;20650;-67
2023/04/05 14:08:02;;;;;;;12.43;7.90;;;;;;;;;;5038614;28;20197;-67
2023/04/05 14:10:30;;;;;;;9.80;7.67;;;;;;;;;;5054606;28;20247;-67
2023/04/05 14:12:56;;;;;;;8.90;7.13;;;;;;;;;;5054526;28;20248;-68
2023/04/05 14:15:22;;;;;;;18.77;8.07;;;;;;;;;;5054853;28;20178;-67
2023/04/05 14:17:48;;;;;;;10.00;7.30;;;;;;;;;;5054583;28;20183;-66
2023/04/05 14:20:14;;;;;;;9.03;7.57;;;;;;;;;;5054336;28;20190;-66
2023/04/05 14:22:40;;;;;;;12.03;7.13;;;;;;;;;;5054247;28;20182;-67
2023/04/05 14:25:07;;;;;;;8.17;6.60;;;;;;;;;;5054122;28;20205;-67
2023/04/05 14:27:34;;;;;;;13.90;7.33;;;;;;;;;;5036223;28;20187;-66
2023/04/05 14:30:00;;;;;;;9.53;7.77;;;;;;;;;;5054079;28;20202;-67
2023/04/05 14:32:26;;;;;;;10.50;7.23;;;;;;;;;;5053048;28;20202;-67